Radium, Minnesota
Current Conditions -  °F | °C
As of 8:15 AM on Thursday 29 Jan 2015 (Local Time) from KTVF Reporting Station
Overcast Overcast  
Wind Chill: -9°   Ceiling: 3000
Heat Index: 10°   Visibility: 10mi
Dew Point:   Wind: 22mph
Humidity: 85%   Direction: 320°NW
Pressure: 30.33"   Gusts: NA
Location:  48.2512°N, 96.7287°W
Report Text: KTVF 291415Z AUTO 32019KT 10SM SCT014 OVC030 M12/M14 A3033 RMK AO1
Loading
Personal Weather Stations






























Interactive Weather Map New forecast layout! Learn more

10-Day Weather Forecast

Advertisements
Track Severe Weather on mobile